N31GJ LPCS-LPBG
Flight info
| Callsign | N31GJ |
|---|---|
| Flight time | 0h 42m |
| Altitude | 26000 |
| Route | IXIDA DCT DIKMO DCT CANAR DCT BALNO |
| Aircraft | LJ35/M-SBGHRWXYZ/SB1 |
Departure
| Time | 2026-04-29 14:45 |
|---|---|
| Airport | Cascais Airport (LPCS) |
Arrival
| Time | 2026-04-29 15:28 |
|---|---|
| Airport | Bragança Airport (LPBG) |
| Time | Latitude | Longitude | Altitude | Speed | Heading |
|---|---|---|---|---|---|
| 2026-04-29 14:35 | 38.72211 | -9.35781 | 297 ft | 0 kts | 0° |
| 2026-04-29 14:41 | 38.72224 | -9.35776 | 299 ft | 5 kts | 65° |
| 2026-04-29 14:41 | 38.72254 | -9.35744 | 299 ft | 9 kts | 356° |
| 2026-04-29 14:41 | 38.72305 | -9.35701 | 300 ft | 11 kts | 74° |
| 2026-04-29 14:42 | 38.72328 | -9.35601 | 304 ft | 12 kts | 73° |
| 2026-04-29 14:42 | 38.72373 | -9.35581 | 305 ft | 9 kts | 342° |
| 2026-04-29 14:42 | 38.72436 | -9.35605 | 308 ft | 10 kts | 344° |
| 2026-04-29 14:42 | 38.72504 | -9.35629 | 312 ft | 10 kts | 346° |
| 2026-04-29 14:43 | 38.72539 | -9.35571 | 314 ft | 10 kts | 69° |
| 2026-04-29 14:43 | 38.72604 | -9.35554 | 316 ft | 11 kts | 343° |
| 2026-04-29 14:43 | 38.72685 | -9.35584 | 318 ft | 13 kts | 344° |
| 2026-04-29 14:43 | 38.72773 | -9.35616 | 320 ft | 13 kts | 343° |
| 2026-04-29 14:44 | 38.72860 | -9.35648 | 326 ft | 14 kts | 342° |
| 2026-04-29 14:44 | 38.72948 | -9.35681 | 333 ft | 18 kts | 343° |
| 2026-04-29 14:44 | 38.73090 | -9.35735 | 335 ft | 23 kts | 344° |
| 2026-04-29 14:44 | 38.73196 | -9.35796 | 336 ft | 11 kts | 325° |
| 2026-04-29 14:45 | 38.73203 | -9.35774 | 336 ft | 9 kts | 168° |
| 2026-04-29 14:45 | 38.73115 | -9.35742 | 335 ft | 21 kts | 164° |
| 2026-04-29 14:45 | 38.72655 | -9.35572 | 317 ft | 125 kts | 164° |
| 2026-04-29 14:45 | 38.71647 | -9.35202 | 1111 ft | 159 kts | 167° |
| 2026-04-29 14:46 | 38.70606 | -9.35023 | 1599 ft | 148 kts | 191° |
| 2026-04-29 14:46 | 38.69596 | -9.35355 | 1909 ft | 156 kts | 204° |
| 2026-04-29 14:46 | 38.68640 | -9.35899 | 2340 ft | 151 kts | 213° |
| 2026-04-29 14:46 | 38.67977 | -9.36994 | 2283 ft | 166 kts | 258° |
| 2026-04-29 14:47 | 38.68212 | -9.38423 | 3260 ft | 167 kts | 291° |
| 2026-04-29 14:47 | 38.68998 | -9.39591 | 4279 ft | 194 kts | 315° |
| 2026-04-29 14:47 | 38.70177 | -9.40769 | 5147 ft | 233 kts | 319° |
| 2026-04-29 14:47 | 38.71587 | -9.42015 | 6280 ft | 260 kts | 328° |
| 2026-04-29 14:48 | 38.73420 | -9.42581 | 7456 ft | 286 kts | 356° |
| 2026-04-29 14:48 | 38.75361 | -9.41980 | 8933 ft | 295 kts | 22° |
| 2026-04-29 14:48 | 38.77102 | -9.40527 | 10228 ft | 303 kts | 33° |
| 2026-04-29 14:48 | 38.78802 | -9.38894 | 11437 ft | 308 kts | 33° |
| 2026-04-29 14:49 | 38.80566 | -9.37305 | 12673 ft | 312 kts | 31° |
| 2026-04-29 14:49 | 38.82396 | -9.35764 | 13890 ft | 317 kts | 29° |
| 2026-04-29 14:49 | 38.84271 | -9.34248 | 14996 ft | 321 kts | 28° |
| 2026-04-29 14:49 | 38.86186 | -9.32732 | 16107 ft | 326 kts | 27° |
| 2026-04-29 14:50 | 38.88141 | -9.31200 | 17213 ft | 331 kts | 27° |
| 2026-04-29 14:50 | 38.90125 | -9.29654 | 18304 ft | 336 kts | 27° |
| 2026-04-29 14:50 | 38.92143 | -9.28082 | 19223 ft | 342 kts | 27° |
| 2026-04-29 14:50 | 38.94192 | -9.26485 | 20172 ft | 347 kts | 27° |
| 2026-04-29 14:51 | 38.96276 | -9.24859 | 21116 ft | 353 kts | 27° |
| 2026-04-29 14:51 | 38.98387 | -9.23209 | 22056 ft | 359 kts | 27° |
| 2026-04-29 14:51 | 39.00537 | -9.21527 | 22993 ft | 365 kts | 27° |
| 2026-04-29 14:51 | 39.02722 | -9.19818 | 23825 ft | 370 kts | 27° |
| 2026-04-29 14:52 | 39.04959 | -9.18068 | 24421 ft | 382 kts | 27° |
| 2026-04-29 14:52 | 39.07264 | -9.16264 | 24948 ft | 393 kts | 27° |
| 2026-04-29 14:52 | 39.09643 | -9.14402 | 25321 ft | 406 kts | 27° |
| 2026-04-29 14:52 | 39.12085 | -9.12488 | 25621 ft | 415 kts | 27° |
| 2026-04-29 14:53 | 39.14579 | -9.10531 | 25816 ft | 424 kts | 27° |
| 2026-04-29 14:53 | 39.17101 | -9.08540 | 25857 ft | 426 kts | 27° |
| 2026-04-29 14:53 | 39.19622 | -9.06548 | 25877 ft | 427 kts | 27° |
| 2026-04-29 14:53 | 39.22163 | -9.04544 | 25882 ft | 428 kts | 27° |
| 2026-04-29 14:54 | 39.24699 | -9.02546 | 25879 ft | 428 kts | 28° |
| 2026-04-29 14:54 | 39.27248 | -9.00535 | 25873 ft | 429 kts | 28° |
| 2026-04-29 14:54 | 39.29788 | -8.98532 | 25870 ft | 429 kts | 28° |
| 2026-04-29 14:54 | 39.32332 | -8.96524 | 25858 ft | 428 kts | 28° |
| 2026-04-29 14:55 | 39.34854 | -8.94530 | 25860 ft | 419 kts | 28° |
| 2026-04-29 14:55 | 39.36487 | -8.93233 | 25854 ft | 412 kts | 28° |
| 2026-04-29 14:56 | 39.44352 | -8.86997 | 25840 ft | 406 kts | 29° |
| 2026-04-29 14:56 | 39.46769 | -8.85081 | 25845 ft | 407 kts | 29° |
| 2026-04-29 14:56 | 39.49177 | -8.83171 | 25844 ft | 407 kts | 29° |
| 2026-04-29 14:56 | 39.51591 | -8.81254 | 25839 ft | 407 kts | 29° |
| 2026-04-29 14:57 | 39.54005 | -8.79335 | 25845 ft | 407 kts | 29° |
| 2026-04-29 14:57 | 39.56420 | -8.77413 | 25841 ft | 407 kts | 29° |
| 2026-04-29 14:57 | 39.58837 | -8.75489 | 25845 ft | 408 kts | 29° |
| 2026-04-29 14:57 | 39.61254 | -8.73561 | 25842 ft | 408 kts | 29° |
| 2026-04-29 14:58 | 39.63679 | -8.71625 | 25841 ft | 408 kts | 30° |
| 2026-04-29 14:58 | 39.66097 | -8.69695 | 25839 ft | 408 kts | 30° |
| 2026-04-29 14:58 | 39.68510 | -8.67767 | 25839 ft | 408 kts | 30° |
| 2026-04-29 14:58 | 39.70928 | -8.65836 | 25836 ft | 408 kts | 30° |
| 2026-04-29 14:59 | 39.73314 | -8.63928 | 25839 ft | 408 kts | 30° |
| 2026-04-29 14:59 | 39.75730 | -8.61989 | 25834 ft | 408 kts | 30° |
| 2026-04-29 14:59 | 39.78148 | -8.60051 | 25835 ft | 408 kts | 30° |
| 2026-04-29 14:59 | 39.80566 | -8.58113 | 25835 ft | 408 kts | 31° |
| 2026-04-29 15:00 | 39.82984 | -8.56172 | 25837 ft | 408 kts | 31° |
| 2026-04-29 15:00 | 39.85401 | -8.54229 | 25840 ft | 408 kts | 31° |
| 2026-04-29 15:00 | 39.87819 | -8.52283 | 25844 ft | 409 kts | 31° |
| 2026-04-29 15:00 | 39.90237 | -8.50335 | 25842 ft | 409 kts | 31° |
| 2026-04-29 15:01 | 39.92655 | -8.48387 | 25841 ft | 409 kts | 31° |
| 2026-04-29 15:01 | 39.95072 | -8.46437 | 25842 ft | 409 kts | 31° |
| 2026-04-29 15:01 | 39.97488 | -8.44486 | 25844 ft | 408 kts | 32° |
| 2026-04-29 15:01 | 39.99904 | -8.42534 | 25844 ft | 408 kts | 32° |
| 2026-04-29 15:02 | 40.02313 | -8.40586 | 25843 ft | 408 kts | 32° |
| 2026-04-29 15:02 | 40.04343 | -8.38942 | 25843 ft | 408 kts | 32° |
| 2026-04-29 15:02 | 40.06753 | -8.36991 | 25847 ft | 408 kts | 32° |
| 2026-04-29 15:02 | 40.09167 | -8.35034 | 25846 ft | 408 kts | 32° |
| 2026-04-29 15:03 | 40.11578 | -8.33078 | 25844 ft | 408 kts | 32° |
| 2026-04-29 15:03 | 40.13986 | -8.31123 | 25832 ft | 408 kts | 32° |
| 2026-04-29 15:03 | 40.16390 | -8.29170 | 25842 ft | 408 kts | 32° |
| 2026-04-29 15:03 | 40.18801 | -8.27209 | 25838 ft | 408 kts | 32° |
| 2026-04-29 15:04 | 40.21212 | -8.25246 | 25835 ft | 408 kts | 32° |
| 2026-04-29 15:04 | 40.23613 | -8.23290 | 25834 ft | 407 kts | 32° |
| 2026-04-29 15:04 | 40.26024 | -8.21325 | 25845 ft | 407 kts | 33° |
| 2026-04-29 15:04 | 40.28430 | -8.19362 | 25841 ft | 407 kts | 33° |
| 2026-04-29 15:05 | 40.30835 | -8.17398 | 25837 ft | 407 kts | 33° |
| 2026-04-29 15:05 | 40.33238 | -8.15433 | 25838 ft | 407 kts | 33° |
| 2026-04-29 15:05 | 40.35638 | -8.13470 | 25839 ft | 407 kts | 33° |
| 2026-04-29 15:05 | 40.38008 | -8.11529 | 25849 ft | 407 kts | 33° |
| 2026-04-29 15:06 | 40.40443 | -8.09532 | 25865 ft | 408 kts | 33° |
| 2026-04-29 15:06 | 40.42820 | -8.07583 | 25850 ft | 408 kts | 33° |
| 2026-04-29 15:06 | 40.45260 | -8.05582 | 25840 ft | 408 kts | 33° |
| 2026-04-29 15:06 | 40.47659 | -8.03612 | 25835 ft | 408 kts | 33° |
| 2026-04-29 15:07 | 40.50070 | -8.01630 | 25831 ft | 408 kts | 33° |
| 2026-04-29 15:07 | 40.52443 | -7.99676 | 25830 ft | 408 kts | 33° |
| 2026-04-29 15:07 | 40.54873 | -7.97674 | 25827 ft | 408 kts | 33° |
| 2026-04-29 15:07 | 40.57280 | -7.95688 | 25825 ft | 407 kts | 33° |
| 2026-04-29 15:08 | 40.59676 | -7.93711 | 25824 ft | 407 kts | 33° |
| 2026-04-29 15:08 | 40.62078 | -7.91727 | 25821 ft | 407 kts | 33° |
| 2026-04-29 15:08 | 40.64439 | -7.89775 | 25821 ft | 407 kts | 33° |
| 2026-04-29 15:08 | 40.66212 | -7.88308 | 25824 ft | 407 kts | 33° |
| 2026-04-29 15:09 | 40.67753 | -7.87032 | 25824 ft | 407 kts | 33° |
| 2026-04-29 15:09 | 40.70145 | -7.85052 | 25820 ft | 407 kts | 33° |
| 2026-04-29 15:09 | 40.72548 | -7.83061 | 25820 ft | 407 kts | 33° |
| 2026-04-29 15:09 | 40.74944 | -7.81071 | 25818 ft | 407 kts | 33° |
| 2026-04-29 15:10 | 40.77342 | -7.79080 | 25820 ft | 407 kts | 33° |
| 2026-04-29 15:10 | 40.79737 | -7.77089 | 25819 ft | 407 kts | 33° |
| 2026-04-29 15:10 | 40.82135 | -7.75094 | 25818 ft | 408 kts | 33° |
| 2026-04-29 15:10 | 40.84532 | -7.73098 | 25819 ft | 408 kts | 33° |
| 2026-04-29 15:11 | 40.86924 | -7.71106 | 25740 ft | 402 kts | 33° |
| 2026-04-29 15:11 | 40.89272 | -7.69150 | 25255 ft | 395 kts | 33° |
| 2026-04-29 15:11 | 40.91577 | -7.67232 | 24770 ft | 390 kts | 33° |
| 2026-04-29 15:11 | 40.93859 | -7.65327 | 24291 ft | 386 kts | 33° |
| 2026-04-29 15:12 | 40.96117 | -7.63440 | 23824 ft | 382 kts | 33° |
| 2026-04-29 15:12 | 40.97603 | -7.62194 | 23518 ft | 380 kts | 33° |
| 2026-04-29 15:12 | 41.00581 | -7.59701 | 22810 ft | 377 kts | 33° |
| 2026-04-29 15:12 | 41.02796 | -7.57848 | 22279 ft | 375 kts | 33° |
| 2026-04-29 15:13 | 41.04992 | -7.56007 | 21761 ft | 373 kts | 33° |
| 2026-04-29 15:13 | 41.07192 | -7.54158 | 21263 ft | 375 kts | 33° |
| 2026-04-29 15:13 | 41.09403 | -7.52302 | 20786 ft | 377 kts | 33° |
| 2026-04-29 15:13 | 41.11621 | -7.50439 | 20325 ft | 378 kts | 33° |
| 2026-04-29 15:14 | 41.13841 | -7.48571 | 19872 ft | 378 kts | 33° |
| 2026-04-29 15:14 | 41.16058 | -7.46702 | 19445 ft | 378 kts | 33° |
| 2026-04-29 15:14 | 41.18276 | -7.44831 | 19022 ft | 378 kts | 33° |
| 2026-04-29 15:14 | 41.20494 | -7.42959 | 18600 ft | 377 kts | 33° |
| 2026-04-29 15:15 | 41.22707 | -7.41091 | 18198 ft | 376 kts | 33° |
| 2026-04-29 15:15 | 41.24915 | -7.39225 | 17748 ft | 376 kts | 33° |
| 2026-04-29 15:15 | 41.27112 | -7.37366 | 17306 ft | 375 kts | 33° |
| 2026-04-29 15:15 | 41.29310 | -7.35507 | 16870 ft | 374 kts | 33° |
| 2026-04-29 15:16 | 41.31501 | -7.33650 | 16426 ft | 373 kts | 33° |
| 2026-04-29 15:16 | 41.33686 | -7.31797 | 15989 ft | 372 kts | 33° |
| 2026-04-29 15:16 | 41.35863 | -7.29948 | 15569 ft | 371 kts | 33° |
| 2026-04-29 15:16 | 41.38035 | -7.28105 | 15169 ft | 369 kts | 33° |
| 2026-04-29 15:17 | 41.40200 | -7.26269 | 14775 ft | 368 kts | 33° |
| 2026-04-29 15:17 | 41.41964 | -7.24771 | 14457 ft | 368 kts | 33° |
| 2026-04-29 15:17 | 41.43391 | -7.23558 | 14204 ft | 365 kts | 33° |
| 2026-04-29 15:17 | 41.44781 | -7.22375 | 13953 ft | 349 kts | 33° |
| 2026-04-29 15:18 | 41.47383 | -7.20157 | 13404 ft | 323 kts | 33° |
| 2026-04-29 15:18 | 41.49231 | -7.18580 | 12948 ft | 308 kts | 33° |
| 2026-04-29 15:18 | 41.51001 | -7.17068 | 12476 ft | 297 kts | 33° |
| 2026-04-29 15:18 | 41.52736 | -7.15585 | 12003 ft | 288 kts | 33° |
| 2026-04-29 15:19 | 41.54379 | -7.14181 | 11559 ft | 281 kts | 32° |
| 2026-04-29 15:19 | 41.56006 | -7.12790 | 11117 ft | 275 kts | 32° |
| 2026-04-29 15:19 | 41.57602 | -7.11424 | 10667 ft | 270 kts | 32° |
| 2026-04-29 15:19 | 41.59175 | -7.10080 | 10237 ft | 267 kts | 32° |
| 2026-04-29 15:20 | 41.60724 | -7.08716 | 9813 ft | 266 kts | 36° |
| 2026-04-29 15:20 | 41.62116 | -7.07103 | 9365 ft | 264 kts | 46° |
| 2026-04-29 15:20 | 41.63282 | -7.05217 | 8908 ft | 262 kts | 52° |
| 2026-04-29 15:20 | 41.64453 | -7.03359 | 8478 ft | 260 kts | 49° |
| 2026-04-29 15:21 | 41.65629 | -7.01550 | 8052 ft | 256 kts | 50° |
| 2026-04-29 15:21 | 41.66397 | -7.00365 | 7831 ft | 252 kts | 49° |
| 2026-04-29 15:21 | 41.67514 | -6.98626 | 7590 ft | 243 kts | 50° |
| 2026-04-29 15:21 | 41.68593 | -6.96933 | 7356 ft | 234 kts | 50° |
| 2026-04-29 15:22 | 41.69641 | -6.95291 | 7326 ft | 231 kts | 50° |
| 2026-04-29 15:22 | 41.70679 | -6.93663 | 7318 ft | 229 kts | 50° |
| 2026-04-29 15:22 | 41.71706 | -6.92046 | 7306 ft | 227 kts | 49° |
| 2026-04-29 15:22 | 41.72723 | -6.90453 | 7276 ft | 222 kts | 50° |
| 2026-04-29 15:23 | 41.73711 | -6.88890 | 7017 ft | 220 kts | 50° |
| 2026-04-29 15:23 | 41.74704 | -6.87316 | 6646 ft | 223 kts | 50° |
| 2026-04-29 15:23 | 41.75693 | -6.85700 | 6274 ft | 225 kts | 51° |
| 2026-04-29 15:23 | 41.76694 | -6.84079 | 5899 ft | 226 kts | 50° |
| 2026-04-29 15:24 | 41.77688 | -6.82474 | 5491 ft | 214 kts | 50° |
| 2026-04-29 15:24 | 41.78630 | -6.80958 | 5128 ft | 210 kts | 50° |
| 2026-04-29 15:24 | 41.79572 | -6.79469 | 4756 ft | 208 kts | 50° |
| 2026-04-29 15:24 | 41.80530 | -6.78044 | 4361 ft | 205 kts | 37° |
| 2026-04-29 15:25 | 41.81788 | -6.77227 | 4056 ft | 197 kts | 18° |
| 2026-04-29 15:25 | 41.83041 | -6.76561 | 3836 ft | 192 kts | 22° |
| 2026-04-29 15:25 | 41.84201 | -6.75726 | 3770 ft | 188 kts | 40° |
| 2026-04-29 15:25 | 41.84890 | -6.74307 | 3724 ft | 180 kts | 71° |
| 2026-04-29 15:26 | 41.85513 | -6.72927 | 3600 ft | 166 kts | 36° |
| 2026-04-29 15:26 | 41.86533 | -6.72351 | 3545 ft | 156 kts | 19° |
| 2026-04-29 15:26 | 41.87564 | -6.71894 | 3411 ft | 154 kts | 13° |
| 2026-04-29 15:26 | 41.88622 | -6.71495 | 3369 ft | 159 kts | 14° |
| 2026-04-29 15:27 | 41.89477 | -6.70635 | 3152 ft | 160 kts | 79° |
| 2026-04-29 15:27 | 41.89191 | -6.69369 | 2983 ft | 145 kts | 159° |
| 2026-04-29 15:27 | 41.88309 | -6.69642 | 2786 ft | 133 kts | 214° |
| 2026-04-29 15:27 | 41.87506 | -6.70174 | 2506 ft | 129 kts | 199° |
| 2026-04-29 15:28 | 41.86617 | -6.70449 | 2278 ft | 131 kts | 196° |
| 2026-04-29 15:28 | 41.86062 | -6.70631 | 2249 ft | 113 kts | 193° |
| 2026-04-29 15:28 | 41.85428 | -6.70832 | 2283 ft | 19 kts | 193° |
| 2026-04-29 15:28 | 41.85378 | -6.70837 | 2286 ft | 4 kts | 201° |
| 2026-04-29 15:29 | 41.85399 | -6.70846 | 2285 ft | 9 kts | 14° |
| 2026-04-29 15:29 | 41.85602 | -6.70776 | 2277 ft | 18 kts | 13° |
| 2026-04-29 15:30 | 41.85641 | -6.70608 | 2272 ft | 8 kts | 189° |
| 2026-04-29 15:30 | 41.85603 | -6.70619 | 2273 ft | 2 kts | 164° |
| 2026-04-29 15:30 | 41.85600 | -6.70615 | 2273 ft | 0 kts | 110° |
| 2026-04-29 15:30 | 41.85599 | -6.70610 | 2272 ft | 0 kts | 104° |